sensor_id;sensor_type;location;lat;lon;timestamp;pressure;altitude;pressure_sealevel;temperature;humidity
61205;BME280;47068;55.780;37.520;2023-08-08T00:00:48;99067.81;;;24.21;53.37
61205;BME280;47068;55.780;37.520;2023-08-08T00:03:14;99053.38;;;24.16;53.46
61205;BME280;47068;55.780;37.520;2023-08-08T00:05:39;99068.69;;;24.27;53.08
61205;BME280;47068;55.780;37.520;2023-08-08T00:08:05;99049.59;;;24.17;53.30
61205;BME280;47068;55.780;37.520;2023-08-08T00:10:31;99059.97;;;24.20;53.26
61205;BME280;47068;55.780;37.520;2023-08-08T00:12:57;99059.66;;;24.21;53.48
61205;BME280;47068;55.780;37.520;2023-08-08T00:15:22;99048.03;;;24.26;53.14
61205;BME280;47068;55.780;37.520;2023-08-08T00:17:48;99053.94;;;24.13;53.57
61205;BME280;47068;55.780;37.520;2023-08-08T00:20:13;99050.91;;;24.09;53.48
61205;BME280;47068;55.780;37.520;2023-08-08T00:22:38;99058.88;;;24.26;53.24
61205;BME280;47068;55.780;37.520;2023-08-08T00:25:04;99052.34;;;24.22;53.06
61205;BME280;47068;55.780;37.520;2023-08-08T00:27:30;99035.97;;;24.07;53.16
61205;BME280;47068;55.780;37.520;2023-08-08T00:29:55;99037.41;;;24.19;53.11
61205;BME280;47068;55.780;37.520;2023-08-08T00:32:20;99033.00;;;24.18;53.35
61205;BME280;47068;55.780;37.520;2023-08-08T00:34:46;99042.03;;;24.24;53.32
61205;BME280;47068;55.780;37.520;2023-08-08T00:37:11;99017.00;;;24.22;53.04
61205;BME280;47068;55.780;37.520;2023-08-08T00:39:37;99024.63;;;24.30;53.04
61205;BME280;47068;55.780;37.520;2023-08-08T00:42:02;99000.09;;;24.10;53.50
61205;BME280;47068;55.780;37.520;2023-08-08T00:44:28;98990.56;;;24.07;53.46
61205;BME280;47068;55.780;37.520;2023-08-08T00:46:54;98998.28;;;24.25;53.10
61205;BME280;47068;55.780;37.520;2023-08-08T00:49:20;99001.25;;;24.34;53.09
61205;BME280;47068;55.780;37.520;2023-08-08T00:51:46;99004.50;;;24.21;53.37
61205;BME280;47068;55.780;37.520;2023-08-08T00:54:12;99003.94;;;24.19;53.49
61205;BME280;47068;55.780;37.520;2023-08-08T00:56:38;98993.31;;;24.12;53.54
61205;BME280;47068;55.780;37.520;2023-08-08T00:59:04;99008.22;;;23.94;53.70
61205;BME280;47068;55.780;37.520;2023-08-08T01:01:29;99014.16;;;23.86;54.29
61205;BME280;47068;55.780;37.520;2023-08-08T01:03:55;99003.00;;;23.78;54.70
61205;BME280;47068;55.780;37.520;2023-08-08T01:06:46;98977.72;;;23.72;54.70
61205;BME280;47068;55.780;37.520;2023-08-08T01:09:24;98998.41;;;23.83;54.88
61205;BME280;47068;55.780;37.520;2023-08-08T01:11:51;99006.00;;;23.81;54.92
61205;BME280;47068;55.780;37.520;2023-08-08T01:14:17;98995.94;;;23.77;55.32
61205;BME280;47068;55.780;37.520;2023-08-08T01:16:44;99021.13;;;23.62;55.66
61205;BME280;47068;55.780;37.520;2023-08-08T01:19:15;99001.00;;;23.53;56.06
61205;BME280;47068;55.780;37.520;2023-08-08T01:21:45;98992.88;;;23.58;56.30
61205;BME280;47068;55.780;37.520;2023-08-08T01:24:20;98986.59;;;23.52;56.93
61205;BME280;47068;55.780;37.520;2023-08-08T01:26:46;98986.00;;;23.45;56.98
61205;BME280;47068;55.780;37.520;2023-08-08T01:29:12;98988.94;;;23.39;57.39
61205;BME280;47068;55.780;37.520;2023-08-08T01:31:37;98985.72;;;23.42;57.10
61205;BME280;47068;55.780;37.520;2023-08-08T01:34:03;98994.44;;;23.44;57.28
61205;BME280;47068;55.780;37.520;2023-08-08T01:36:32;98973.22;;;23.41;57.11
61205;BME280;47068;55.780;37.520;2023-08-08T01:39:01;98984.19;;;23.51;56.74
61205;BME280;47068;55.780;37.520;2023-08-08T01:41:32;98986.59;;;23.47;56.44
61205;BME280;47068;55.780;37.520;2023-08-08T01:43:58;98986.34;;;23.54;56.76
61205;BME280;47068;55.780;37.520;2023-08-08T01:46:25;98970.34;;;23.58;56.36
61205;BME280;47068;55.780;37.520;2023-08-08T01:48:51;98979.03;;;23.60;56.34
61205;BME280;47068;55.780;37.520;2023-08-08T01:51:17;98979.25;;;23.48;55.92
61205;BME280;47068;55.780;37.520;2023-08-08T01:53:42;98978.13;;;23.44;56.18
61205;BME280;47068;55.780;37.520;2023-08-08T01:56:08;98979.25;;;23.48;55.82
61205;BME280;47068;55.780;37.520;2023-08-08T01:58:33;98975.78;;;23.58;55.84
61205;BME280;47068;55.780;37.520;2023-08-08T02:00:59;98976.06;;;23.61;56.03
61205;BME280;47068;55.780;37.520;2023-08-08T02:03:24;98992.34;;;23.56;55.98
61205;BME280;47068;55.780;37.520;2023-08-08T02:05:50;98990.59;;;23.45;56.03
61205;BME280;47068;55.780;37.520;2023-08-08T02:08:15;99001.53;;;23.50;56.04
61205;BME280;47068;55.780;37.520;2023-08-08T02:10:41;99004.84;;;23.57;56.14
61205;BME280;47068;55.780;37.520;2023-08-08T02:13:06;98995.06;;;23.56;56.39
61205;BME280;47068;55.780;37.520;2023-08-08T02:15:31;98992.84;;;23.48;57.43
61205;BME280;47068;55.780;37.520;2023-08-08T02:17:57;98991.66;;;23.39;58.22
61205;BME280;47068;55.780;37.520;2023-08-08T02:20:22;99004.16;;;23.35;57.99
61205;BME280;47068;55.780;37.520;2023-08-08T02:22:48;99010.41;;;23.35;58.59
61205;BME280;47068;55.780;37.520;2023-08-08T02:25:13;99011.72;;;23.28;58.34
61205;BME280;47068;55.780;37.520;2023-08-08T02:27:39;99004.16;;;23.35;58.36
61205;BME280;47068;55.780;37.520;2023-08-08T02:30:04;99001.66;;;23.23;56.60
61205;BME280;47068;55.780;37.520;2023-08-08T02:32:30;98993.16;;;23.09;57.92
61205;BME280;47068;55.780;37.520;2023-08-08T02:34:55;98992.59;;;23.07;58.24
61205;BME280;47068;55.780;37.520;2023-08-08T02:37:21;99001.28;;;23.09;58.07
61205;BME280;47068;55.780;37.520;2023-08-08T02:39:46;98984.19;;;23.09;58.09
61205;BME280;47068;55.780;37.520;2023-08-08T02:42:12;98983.31;;;22.98;57.90
61205;BME280;47068;55.780;37.520;2023-08-08T02:44:37;99003.91;;;22.94;57.69
61205;BME280;47068;55.780;37.520;2023-08-08T02:47:03;98987.94;;;23.03;57.69
61205;BME280;47068;55.780;37.520;2023-08-08T02:49:28;98996.13;;;23.08;57.70
61205;BME280;47068;55.780;37.520;2023-08-08T02:51:54;98994.22;;;23.08;57.12
61205;BME280;47068;55.780;37.520;2023-08-08T02:54:20;98998.53;;;23.04;57.33
61205;BME280;47068;55.780;37.520;2023-08-08T02:56:45;98996.66;;;23.10;56.95
61205;BME280;47068;55.780;37.520;2023-08-08T02:59:11;99001.84;;;23.16;56.95
61205;BME280;47068;55.780;37.520;2023-08-08T03:01:37;99005.38;;;23.17;56.60
61205;BME280;47068;55.780;37.520;2023-08-08T03:04:05;99004.53;;;23.11;56.72
61205;BME280;47068;55.780;37.520;2023-08-08T03:06:31;99003.00;;;23.26;56.29
61205;BME280;47068;55.780;37.520;2023-08-08T03:08:57;99006.84;;;23.30;55.98
61205;BME280;47068;55.780;37.520;2023-08-08T03:11:22;98999.19;;;23.22;56.27
61205;BME280;47068;55.780;37.520;2023-08-08T03:13:48;99004.66;;;23.32;55.91
61205;BME280;47068;55.780;37.520;2023-08-08T03:16:13;98998.75;;;23.40;55.72
61205;BME280;47068;55.780;37.520;2023-08-08T03:18:38;99002.56;;;23.44;55.65
61205;BME280;47068;55.780;37.520;2023-08-08T03:21:04;99009.41;;;23.51;55.01
61205;BME280;47068;55.780;37.520;2023-08-08T03:23:30;99014.31;;;23.49;55.31
61205;BME280;47068;55.780;37.520;2023-08-08T03:25:56;99015.66;;;23.52;55.16
61205;BME280;47068;55.780;37.520;2023-08-08T03:28:21;99009.34;;;23.41;55.19
61205;BME280;47068;55.780;37.520;2023-08-08T03:30:47;99018.09;;;23.48;55.17
61205;BME280;47068;55.780;37.520;2023-08-08T03:33:12;99018.00;;;23.38;55.34
61205;BME280;47068;55.780;37.520;2023-08-08T03:35:37;99007.72;;;23.45;55.37
61205;BME280;47068;55.780;37.520;2023-08-08T03:38:03;99008.00;;;23.44;55.04
61205;BME280;47068;55.780;37.520;2023-08-08T03:40:30;99007.50;;;23.52;55.15
61205;BME280;47068;55.780;37.520;2023-08-08T03:42:55;99005.09;;;23.55;54.53
61205;BME280;47068;55.780;37.520;2023-08-08T03:45:21;99007.25;;;23.59;54.67
61205;BME280;47068;55.780;37.520;2023-08-08T03:47:46;99017.34;;;23.63;54.48
61205;BME280;47068;55.780;37.520;2023-08-08T03:50:12;99014.13;;;23.71;54.36
61205;BME280;47068;55.780;37.520;2023-08-08T03:52:37;99003.25;;;23.71;53.95
61205;BME280;47068;55.780;37.520;2023-08-08T03:55:04;99022.22;;;23.66;54.09
61205;BME280;47068;55.780;37.520;2023-08-08T03:57:30;99020.59;;;23.65;54.33
61205;BME280;47068;55.780;37.520;2023-08-08T03:59:56;99023.88;;;23.72;54.26
61205;BME280;47068;55.780;37.520;2023-08-08T04:02:21;99026.09;;;23.80;54.30
61205;BME280;47068;55.780;37.520;2023-08-08T04:04:46;99022.28;;;23.71;54.45
61205;BME280;47068;55.780;37.520;2023-08-08T04:07:12;99042.13;;;23.77;54.27
61205;BME280;47068;55.780;37.520;2023-08-08T04:09:37;99025.81;;;23.72;54.40
61205;BME280;47068;55.780;37.520;2023-08-08T04:12:03;99027.72;;;23.76;54.35
61205;BME280;47068;55.780;37.520;2023-08-08T04:14:28;99028.28;;;23.78;54.62
61205;BME280;47068;55.780;37.520;2023-08-08T04:16:53;99033.72;;;23.83;54.99
61205;BME280;47068;55.780;37.520;2023-08-08T04:19:19;99028.25;;;23.73;55.62
61205;BME280;47068;55.780;37.520;2023-08-08T04:21:44;99028.56;;;23.82;56.35
61205;BME280;47068;55.780;37.520;2023-08-08T04:24:10;99029.28;;;23.57;56.03
61205;BME280;47068;55.780;37.520;2023-08-08T04:26:37;99031.88;;;23.42;57.06
61205;BME280;47068;55.780;37.520;2023-08-08T04:29:02;99040.50;;;23.34;57.51
61205;BME280;47068;55.780;37.520;2023-08-08T04:31:28;99039.56;;;23.50;57.60
61205;BME280;47068;55.780;37.520;2023-08-08T04:33:54;99038.00;;;23.64;57.48
61205;BME280;47068;55.780;37.520;2023-08-08T04:36:25;99047.78;;;23.70;57.04
61205;BME280;47068;55.780;37.520;2023-08-08T04:38:51;99051.09;;;23.82;56.80
61205;BME280;47068;55.780;37.520;2023-08-08T04:41:16;99053.72;;;23.62;56.96
61205;BME280;47068;55.780;37.520;2023-08-08T04:43:42;99047.63;;;23.45;57.51
61205;BME280;47068;55.780;37.520;2023-08-08T04:46:07;99025.31;;;23.33;57.52
61205;BME280;47068;55.780;37.520;2023-08-08T04:48:32;99051.28;;;23.24;58.28
61205;BME280;47068;55.780;37.520;2023-08-08T04:50:58;99046.41;;;23.21;58.54
61205;BME280;47068;55.780;37.520;2023-08-08T04:53:23;99045.59;;;23.25;58.82
61205;BME280;47068;55.780;37.520;2023-08-08T04:55:49;99054.56;;;23.26;58.50
61205;BME280;47068;55.780;37.520;2023-08-08T04:58:14;99053.16;;;23.18;59.86
61205;BME280;47068;55.780;37.520;2023-08-08T05:00:39;99062.00;;;23.03;59.68
61205;BME280;47068;55.780;37.520;2023-08-08T05:03:05;99055.16;;;22.96;60.96
61205;BME280;47068;55.780;37.520;2023-08-08T05:05:30;99060.13;;;23.04;60.82
61205;BME280;47068;55.780;37.520;2023-08-08T05:07:55;99056.91;;;23.12;60.83
61205;BME280;47068;55.780;37.520;2023-08-08T05:10:21;99064.84;;;23.24;62.48
61205;BME280;47068;55.780;37.520;2023-08-08T05:12:46;99061.75;;;23.42;62.70
61205;BME280;47068;55.780;37.520;2023-08-08T05:15:12;99067.31;;;23.62;62.70
61205;BME280;47068;55.780;37.520;2023-08-08T05:17:38;99080.97;;;23.82;61.42
61205;BME280;47068;55.780;37.520;2023-08-08T05:20:04;99072.84;;;23.87;58.99
61205;BME280;47068;55.780;37.520;2023-08-08T05:22:29;99072.34;;;23.95;59.62
61205;BME280;47068;55.780;37.520;2023-08-08T05:24:55;99074.47;;;23.83;59.78
61205;BME280;47068;55.780;37.520;2023-08-08T05:27:20;99068.97;;;23.68;59.90
61205;BME280;47068;55.780;37.520;2023-08-08T05:29:46;99074.56;;;23.51;59.91
61205;BME280;47068;55.780;37.520;2023-08-08T05:32:11;99070.34;;;23.29;59.82
61205;BME280;47068;55.780;37.520;2023-08-08T05:34:37;99066.97;;;23.16;60.36
61205;BME280;47068;55.780;37.520;2023-08-08T05:37:02;99070.81;;;23.21;60.29
61205;BME280;47068;55.780;37.520;2023-08-08T05:39:29;99068.31;;;24.08;58.75
61205;BME280;47068;55.780;37.520;2023-08-08T05:41:56;99055.69;;;24.54;56.87
61205;BME280;47068;55.780;37.520;2023-08-08T05:44:21;99075.22;;;24.41;57.24
61205;BME280;47068;55.780;37.520;2023-08-08T05:46:46;99075.25;;;24.46;57.60
61205;BME280;47068;55.780;37.520;2023-08-08T05:49:12;99065.66;;;24.28;56.48
61205;BME280;47068;55.780;37.520;2023-08-08T05:51:37;99066.56;;;24.85;55.83
61205;BME280;47068;55.780;37.520;2023-08-08T05:54:03;99061.34;;;25.49;54.23
61205;BME280;47068;55.780;37.520;2023-08-08T05:56:35;99073.19;;;25.94;53.63
61205;BME280;47068;55.780;37.520;2023-08-08T05:59:02;99065.16;;;26.22;52.69
61205;BME280;47068;55.780;37.520;2023-08-08T06:01:27;99069.53;;;26.23;52.05
61205;BME280;47068;55.780;37.520;2023-08-08T06:03:53;99072.19;;;25.74;51.88
61205;BME280;47068;55.780;37.520;2023-08-08T06:06:18;99070.38;;;25.19;53.51
61205;BME280;47068;55.780;37.520;2023-08-08T06:08:44;99067.38;;;24.70;55.70
61205;BME280;47068;55.780;37.520;2023-08-08T06:11:09;99068.19;;;24.65;55.68
61205;BME280;47068;55.780;37.520;2023-08-08T06:13:35;99073.06;;;24.48;55.52
61205;BME280;47068;55.780;37.520;2023-08-08T06:16:00;99058.06;;;24.25;55.92
61205;BME280;47068;55.780;37.520;2023-08-08T06:18:27;99062.97;;;24.28;55.93
61205;BME280;47068;55.780;37.520;2023-08-08T06:20:52;99063.94;;;24.07;56.73
61205;BME280;47068;55.780;37.520;2023-08-08T06:23:18;99063.41;;;24.05;56.70
61205;BME280;47068;55.780;37.520;2023-08-08T06:25:43;99071.78;;;23.88;57.17
61205;BME280;47068;55.780;37.520;2023-08-08T06:28:09;99072.56;;;23.84;57.82
61205;BME280;47068;55.780;37.520;2023-08-08T06:30:34;99066.59;;;23.87;57.44
61205;BME280;47068;55.780;37.520;2023-08-08T06:32:59;99071.25;;;23.97;57.29
61205;BME280;47068;55.780;37.520;2023-08-08T06:35:25;99078.41;;;24.18;56.83
61205;BME280;47068;55.780;37.520;2023-08-08T06:37:50;99073.31;;;24.26;57.16
61205;BME280;47068;55.780;37.520;2023-08-08T06:40:16;99086.09;;;24.41;58.21
61205;BME280;47068;55.780;37.520;2023-08-08T06:42:42;99083.97;;;24.58;56.86
61205;BME280;47068;55.780;37.520;2023-08-08T06:45:07;99073.69;;;25.01;55.09
61205;BME280;47068;55.780;37.520;2023-08-08T06:47:35;99073.09;;;25.29;54.20
61205;BME280;47068;55.780;37.520;2023-08-08T06:50:00;99076.78;;;25.89;52.82
61205;BME280;47068;55.780;37.520;2023-08-08T06:52:26;99073.56;;;25.67;52.43
61205;BME280;47068;55.780;37.520;2023-08-08T06:54:51;99067.28;;;25.76;52.82
61205;BME280;47068;55.780;37.520;2023-08-08T06:57:17;99073.13;;;26.09;51.50
61205;BME280;47068;55.780;37.520;2023-08-08T06:59:42;99074.47;;;29.50;45.04
61205;BME280;47068;55.780;37.520;2023-08-08T07:02:08;99082.34;;;32.89;37.90
61205;BME280;47068;55.780;37.520;2023-08-08T07:04:33;99068.28;;;34.22;33.70
61205;BME280;47068;55.780;37.520;2023-08-08T07:06:59;99085.59;;;31.29;38.04
61205;BME280;47068;55.780;37.520;2023-08-08T07:09:24;99079.25;;;29.25;43.02
61205;BME280;47068;55.780;37.520;2023-08-08T07:11:50;99073.94;;;28.64;44.96
61205;BME280;47068;55.780;37.520;2023-08-08T07:14:15;99086.25;;;28.48;45.40
61205;BME280;47068;55.780;37.520;2023-08-08T07:16:40;99091.47;;;28.02;46.30
61205;BME280;47068;55.780;37.520;2023-08-08T07:19:06;99087.31;;;27.86;46.90
61205;BME280;47068;55.780;37.520;2023-08-08T07:21:31;99088.75;;;28.44;46.24
61205;BME280;47068;55.780;37.520;2023-08-08T07:23:57;99086.22;;;28.29;45.55
61205;BME280;47068;55.780;37.520;2023-08-08T07:26:23;99095.69;;;28.18;46.29
61205;BME280;47068;55.780;37.520;2023-08-08T07:28:48;99094.09;;;27.88;47.32
61205;BME280;47068;55.780;37.520;2023-08-08T07:31:14;99086.03;;;27.54;47.15
61205;BME280;47068;55.780;37.520;2023-08-08T07:33:39;99079.72;;;28.25;46.46
61205;BME280;47068;55.780;37.520;2023-08-08T07:36:04;99082.47;;;28.63;45.96
61205;BME280;47068;55.780;37.520;2023-08-08T07:38:30;99088.75;;;28.63;45.00
61205;BME280;47068;55.780;37.520;2023-08-08T07:40:55;99088.41;;;31.38;40.28
61205;BME280;47068;55.780;37.520;2023-08-08T07:43:21;99084.28;;;32.71;37.90
61205;BME280;47068;55.780;37.520;2023-08-08T07:45:46;99089.59;;;32.42;37.73
61205;BME280;47068;55.780;37.520;2023-08-08T07:48:12;99097.66;;;35.54;33.08
61205;BME280;47068;55.780;37.520;2023-08-08T07:50:37;99097.03;;;36.06;31.69
61205;BME280;47068;55.780;37.520;2023-08-08T07:53:03;99089.94;;;36.97;30.16
61205;BME280;47068;55.780;37.520;2023-08-08T07:55:28;99087.16;;;35.36;31.70
61205;BME280;47068;55.780;37.520;2023-08-08T07:57:54;99082.56;;;33.48;34.84
61205;BME280;47068;55.780;37.520;2023-08-08T08:00:20;99086.66;;;31.73;37.73
61205;BME280;47068;55.780;37.520;2023-08-08T08:02:45;99097.34;;;30.27;40.99
61205;BME280;47068;55.780;37.520;2023-08-08T08:05:12;99096.50;;;29.26;42.78
61205;BME280;47068;55.780;37.520;2023-08-08T08:07:39;99095.50;;;28.89;43.55
61205;BME280;47068;55.780;37.520;2023-08-08T08:10:07;99087.34;;;28.66;44.72
61205;BME280;47068;55.780;37.520;2023-08-08T08:12:34;99093.00;;;28.13;45.44
61205;BME280;47068;55.780;37.520;2023-08-08T08:15:00;99096.09;;;27.82;46.44
61205;BME280;47068;55.780;37.520;2023-08-08T08:17:26;99099.66;;;27.83;46.51
61205;BME280;47068;55.780;37.520;2023-08-08T08:19:53;99094.09;;;27.88;46.74
61205;BME280;47068;55.780;37.520;2023-08-08T08:22:19;99104.06;;;27.79;47.07
61205;BME280;47068;55.780;37.520;2023-08-08T08:24:45;99087.63;;;27.31;47.70
61205;BME280;47068;55.780;37.520;2023-08-08T08:27:11;99108.44;;;27.22;48.56
61205;BME280;47068;55.780;37.520;2023-08-08T08:29:37;99113.34;;;26.86;49.41
61205;BME280;47068;55.780;37.520;2023-08-08T08:32:04;99111.06;;;26.59;49.91
61205;BME280;47068;55.780;37.520;2023-08-08T08:34:29;99117.38;;;26.55;50.17
61205;BME280;47068;55.780;37.520;2023-08-08T08:36:55;99121.44;;;26.57;50.75
61205;BME280;47068;55.780;37.520;2023-08-08T08:39:21;99110.25;;;26.59;50.41
61205;BME280;47068;55.780;37.520;2023-08-08T08:41:54;99100.66;;;26.66;50.64
61205;BME280;47068;55.780;37.520;2023-08-08T08:44:22;99126.97;;;26.91;50.13
61205;BME280;47068;55.780;37.520;2023-08-08T08:46:49;99123.44;;;26.86;49.73
61205;BME280;47068;55.780;37.520;2023-08-08T08:49:17;99121.41;;;26.67;50.32
61205;BME280;47068;55.780;37.520;2023-08-08T08:51:44;99130.09;;;26.70;50.55
61205;BME280;47068;55.780;37.520;2023-08-08T08:54:10;99122.31;;;26.53;50.74
61205;BME280;47068;55.780;37.520;2023-08-08T08:56:36;99142.25;;;26.43;50.63
61205;BME280;47068;55.780;37.520;2023-08-08T08:59:02;99136.03;;;26.38;51.15
61205;BME280;47068;55.780;37.520;2023-08-08T09:01:28;99128.69;;;26.33;51.46
61205;BME280;47068;55.780;37.520;2023-08-08T09:03:54;99125.97;;;26.28;51.58
61205;BME280;47068;55.780;37.520;2023-08-08T09:06:21;99108.16;;;26.46;51.40
61205;BME280;47068;55.780;37.520;2023-08-08T09:08:48;99114.47;;;26.80;50.34
61205;BME280;47068;55.780;37.520;2023-08-08T09:11:14;99122.47;;;27.11;50.01
61205;BME280;47068;55.780;37.520;2023-08-08T09:13:40;99132.25;;;27.17;49.39
61205;BME280;47068;55.780;37.520;2023-08-08T09:16:09;99125.75;;;27.41;49.15
61205;BME280;47068;55.780;37.520;2023-08-08T09:18:35;99133.22;;;27.60;48.23
61205;BME280;47068;55.780;37.520;2023-08-08T09:21:04;99125.03;;;27.60;48.41
61205;BME280;47068;55.780;37.520;2023-08-08T09:23:30;99130.81;;;27.58;48.07
61205;BME280;47068;55.780;37.520;2023-08-08T09:25:56;99132.41;;;27.59;48.73
61205;BME280;47068;55.780;37.520;2023-08-08T09:28:22;99138.59;;;27.41;48.62
61205;BME280;47068;55.780;37.520;2023-08-08T09:30:47;99133.06;;;27.46;48.99
61205;BME280;47068;55.780;37.520;2023-08-08T09:33:13;99137.88;;;27.59;48.82
61205;BME280;47068;55.780;37.520;2023-08-08T09:35:38;99138.81;;;27.73;47.92
61205;BME280;47068;55.780;37.520;2023-08-08T09:38:04;99139.34;;;27.75;48.12
61205;BME280;47068;55.780;37.520;2023-08-08T09:40:30;99108.25;;;27.71;47.76
61205;BME280;47068;55.780;37.520;2023-08-08T09:42:56;99130.41;;;27.94;47.66
61205;BME280;47068;55.780;37.520;2023-08-08T09:45:22;99129.53;;;27.74;47.81
61205;BME280;47068;55.780;37.520;2023-08-08T09:47:50;99122.13;;;27.46;48.12
61205;BME280;47068;55.780;37.520;2023-08-08T09:50:15;99141.09;;;27.32;48.80
61205;BME280;47068;55.780;37.520;2023-08-08T09:52:42;99142.03;;;27.23;49.50
61205;BME280;47068;55.780;37.520;2023-08-08T09:55:10;99147.50;;;27.18;49.70
61205;BME280;47068;55.780;37.520;2023-08-08T09:57:40;99149.78;;;27.11;50.24
61205;BME280;47068;55.780;37.520;2023-08-08T10:00:08;99150.34;;;27.08;50.74
61205;BME280;47068;55.780;37.520;2023-08-08T10:02:37;99144.84;;;27.13;50.33
61205;BME280;47068;55.780;37.520;2023-08-08T10:05:06;99152.53;;;27.05;50.26
61205;BME280;47068;55.780;37.520;2023-08-08T10:07:31;99147.44;;;26.89;49.94
61205;BME280;47068;55.780;37.520;2023-08-08T10:09:58;99150.50;;;26.82;50.40
61205;BME280;47068;55.780;37.520;2023-08-08T10:12:25;99142.28;;;26.87;50.60
61205;BME280;47068;55.780;37.520;2023-08-08T10:14:51;99134.78;;;27.08;50.41
61205;BME280;47068;55.780;37.520;2023-08-08T10:17:18;99135.91;;;27.36;49.97
61205;BME280;47068;55.780;37.520;2023-08-08T10:19:56;99133.53;;;27.58;49.30
61205;BME280;47068;55.780;37.520;2023-08-08T10:22:23;99131.97;;;27.52;48.98
61205;BME280;47068;55.780;37.520;2023-08-08T10:24:52;99148.25;;;27.28;49.42
61205;BME280;47068;55.780;37.520;2023-08-08T10:27:31;99159.84;;;27.15;50.05
61205;BME280;47068;55.780;37.520;2023-08-08T10:30:04;99152.25;;;27.07;50.14
61205;BME280;47068;55.780;37.520;2023-08-08T10:32:41;99160.03;;;26.85;50.45
61205;BME280;47068;55.780;37.520;2023-08-08T10:35:08;99154.00;;;26.88;50.38
61205;BME280;47068;55.780;37.520;2023-08-08T10:37:35;99164.69;;;26.89;50.79
61205;BME280;47068;55.780;37.520;2023-08-08T10:40:02;99167.38;;;26.84;50.70
61205;BME280;47068;55.780;37.520;2023-08-08T10:42:43;99144.25;;;26.77;50.82
61205;BME280;47068;55.780;37.520;2023-08-08T10:45:14;99163.47;;;27.05;50.47
61205;BME280;47068;55.780;37.520;2023-08-08T10:47:40;99171.91;;;27.04;49.84
61205;BME280;47068;55.780;37.520;2023-08-08T10:50:08;99166.28;;;26.95;50.39
61205;BME280;47068;55.780;37.520;2023-08-08T10:52:53;99175.50;;;26.99;50.73
61205;BME280;47068;55.780;37.520;2023-08-08T10:55:24;99175.03;;;26.87;50.40
61205;BME280;47068;55.780;37.520;2023-08-08T10:58:12;99178.34;;;26.79;50.96
61205;BME280;47068;55.780;37.520;2023-08-08T11:00:39;99116.38;;;26.36;51.20
61205;BME280;47068;55.780;37.520;2023-08-08T11:03:06;99184.41;;;26.71;51.31
61205;BME280;47068;55.780;37.520;2023-08-08T11:05:33;99173.00;;;26.59;51.61
61205;BME280;47068;55.780;37.520;2023-08-08T11:08:00;99173.03;;;26.54;51.67
61205;BME280;47068;55.780;37.520;2023-08-08T11:10:26;99188.00;;;26.61;51.96
61205;BME280;47068;55.780;37.520;2023-08-08T11:13:00;99181.22;;;26.54;52.27
61205;BME280;47068;55.780;37.520;2023-08-08T11:15:26;99187.84;;;26.38;52.92
61205;BME280;47068;55.780;37.520;2023-08-08T11:17:53;99184.63;;;26.25;53.06
61205;BME280;47068;55.780;37.520;2023-08-08T11:20:18;99184.63;;;26.25;53.23
61205;BME280;47068;55.780;37.520;2023-08-08T11:22:44;99174.81;;;26.24;52.93
61205;BME280;47068;55.780;37.520;2023-08-08T11:25:09;99178.06;;;26.32;53.35
61205;BME280;47068;55.780;37.520;2023-08-08T11:27:35;99178.28;;;26.35;53.30
61205;BME280;47068;55.780;37.520;2023-08-08T11:30:01;99180.72;;;26.42;53.59
61205;BME280;47068;55.780;37.520;2023-08-08T11:32:27;99184.25;;;26.42;53.32
61205;BME280;47068;55.780;37.520;2023-08-08T11:34:54;99186.75;;;26.39;53.40
61205;BME280;47068;55.780;37.520;2023-08-08T11:37:20;99196.81;;;26.48;53.72
61205;BME280;47068;55.780;37.520;2023-08-08T11:39:47;99177.47;;;26.35;53.04
61205;BME280;47068;55.780;37.520;2023-08-08T11:42:13;99197.66;;;26.39;53.31
61205;BME280;47068;55.780;37.520;2023-08-08T11:44:39;99201.72;;;26.46;53.17
61205;BME280;47068;55.780;37.520;2023-08-08T11:47:05;99206.34;;;26.46;52.84
61205;BME280;47068;55.780;37.520;2023-08-08T11:49:30;99198.19;;;26.36;52.86
61205;BME280;47068;55.780;37.520;2023-08-08T11:52:06;99156.28;;;26.11;53.13
61205;BME280;47068;55.780;37.520;2023-08-08T11:54:32;99193.81;;;26.45;53.14
61205;BME280;47068;55.780;37.520;2023-08-08T11:56:57;99200.84;;;26.56;52.62
61205;BME280;47068;55.780;37.520;2023-08-08T11:59:23;99195.34;;;26.66;52.53
61205;BME280;47068;55.780;37.520;2023-08-08T12:01:49;99200.72;;;26.81;52.56
61205;BME280;47068;55.780;37.520;2023-08-08T12:04:14;99196.25;;;27.00;51.85
61205;BME280;47068;55.780;37.520;2023-08-08T12:06:40;99175.78;;;26.98;51.37
61205;BME280;47068;55.780;37.520;2023-08-08T12:09:11;99185.13;;;27.26;51.24
61205;BME280;47068;55.780;37.520;2023-08-08T12:11:39;99186.13;;;27.40;50.64
61205;BME280;47068;55.780;37.520;2023-08-08T12:14:07;99152.84;;;27.33;50.63
61205;BME280;47068;55.780;37.520;2023-08-08T12:16:34;99179.31;;;27.71;50.34
61205;BME280;47068;55.780;37.520;2023-08-08T12:19:03;99167.31;;;27.67;49.94
61205;BME280;47068;55.780;37.520;2023-08-08T12:21:29;99185.03;;;27.99;49.34
61205;BME280;47068;55.780;37.520;2023-08-08T12:23:54;99189.34;;;28.05;49.28
61205;BME280;47068;55.780;37.520;2023-08-08T12:26:20;99163.22;;;27.94;49.34
61205;BME280;47068;55.780;37.520;2023-08-08T12:28:45;99188.19;;;28.11;49.18
61205;BME280;47068;55.780;37.520;2023-08-08T12:31:11;99187.63;;;28.14;48.55
61205;BME280;47068;55.780;37.520;2023-08-08T12:33:36;99191.56;;;28.03;49.00
61205;BME280;47068;55.780;37.520;2023-08-08T12:36:02;99190.25;;;27.95;49.48
61205;BME280;47068;55.780;37.520;2023-08-08T12:38:28;99197.63;;;28.00;49.50
61205;BME280;47068;55.780;37.520;2023-08-08T12:40:53;99184.09;;;27.85;49.71
61205;BME280;47068;55.780;37.520;2023-08-08T12:43:19;99196.69;;;27.86;49.96
61205;BME280;47068;55.780;37.520;2023-08-08T12:45:45;99203.47;;;27.88;50.00